Time;durP1;ratioP1;P1;durP2;ratioP2;P2;SDS_P1;SDS_P2;PMS_P1;PMS_P2;Temp;Humidity;BMP_temperature;BMP_pressure;BME280_temperature;BME280_humidity;BME280_pressure;Samples;Min_cycle;Max_cycle;Signal;HPM_P1;HPM_P2
2021/11/27 00:00:20;;;;;;;;;1.25;1.25;;;;;6.47;67.00;98154.75;5081337;27;45444;-61
2021/11/27 00:02:45;;;;;;;;;1.75;1.00;;;;;6.46;67.10;98155.72;5099297;27;45280;-61
2021/11/27 00:05:11;;;;;;;;;1.25;1.25;;;;;6.43;67.20;98154.28;5081013;27;45277;-62
2021/11/27 00:07:37;;;;;;;;;1.50;1.50;;;;;6.39;67.31;98161.63;5081270;27;45572;-61
2021/11/27 00:10:03;;;;;;;;;3.75;2.00;;;;;6.37;67.37;98160.16;5099191;27;45355;-61
2021/11/27 00:12:29;;;;;;;;;37.50;32.25;;;;;6.35;67.35;98156.91;5099221;27;45877;-61
2021/11/27 00:14:54;;;;;;;;;3.00;3.00;;;;;6.33;67.43;98161.47;5080335;27;62281;-61
2021/11/27 00:17:19;;;;;;;;;4.50;4.00;;;;;6.30;67.64;98165.25;5098562;27;61448;-61
2021/11/27 00:19:45;;;;;;;;;4.50;4.00;;;;;6.30;67.70;98154.81;5099096;27;46407;-61
2021/11/27 00:22:10;;;;;;;;;2.25;2.25;;;;;6.28;67.78;98156.78;5080013;27;64102;-61
2021/11/27 00:24:35;;;;;;;;;5.00;3.00;;;;;6.26;67.85;98152.69;5098223;27;59458;-62
2021/11/27 00:27:01;;;;;;;;;3.00;3.00;;;;;6.24;68.03;98164.09;5098151;27;66341;-61
2021/11/27 00:29:26;;;;;;;;;2.50;2.50;;;;;6.21;67.98;98155.81;5098313;27;63770;-61
2021/11/27 00:31:52;;;;;;;;;3.00;3.00;;;;;6.18;67.98;98156.16;5079907;27;66446;-61
2021/11/27 00:34:17;;;;;;;;;3.00;3.00;;;;;6.14;68.03;98165.28;5099053;27;45682;-61
2021/11/27 00:36:43;;;;;;;;;4.00;3.00;;;;;6.12;68.12;98159.41;5098711;27;46832;-61
2021/11/27 00:39:09;;;;;;;;;5.00;3.00;;;;;6.08;68.00;98157.16;5063414;27;46171;-61
2021/11/27 00:41:36;;;;;;;;;7.50;3.50;;;;;6.07;68.32;98157.31;5098613;27;45285;-61
2021/11/27 00:44:02;;;;;;;;;7.00;6.00;;;;;6.05;68.01;98149.66;5098938;27;45338;-61
2021/11/27 00:46:27;;;;;;;;;4.00;4.00;;;;;6.03;67.95;98149.00;5080615;27;45303;-61
2021/11/27 00:48:53;;;;;;;;;7.00;4.00;;;;;6.01;68.06;98132.72;5079777;27;64611;-61
2021/11/27 00:51:20;;;;;;;;;4.50;4.50;;;;;5.98;68.17;98135.63;5098671;27;45314;-61
2021/11/27 00:53:45;;;;;;;;;4.50;4.25;;;;;5.95;68.62;98146.38;5098137;27;45244;-61
2021/11/27 00:56:14;;;;;;;;;6.75;5.00;;;;;5.94;68.46;98149.97;5098599;27;45259;-61
2021/11/27 00:58:39;;;;;;;;;7.25;4.00;;;;;5.91;68.53;98130.25;5098479;27;45640;-61
2021/11/27 01:01:07;;;;;;;;;10.00;7.00;;;;;5.91;68.71;98134.66;5080209;27;45470;-61
2021/11/27 01:03:32;;;;;;;;;8.75;6.50;;;;;5.89;68.54;98136.59;5080727;27;45348;-61
2021/11/27 01:05:59;;;;;;;;;9.00;4.25;;;;;5.87;68.69;98139.38;5098576;27;45366;-61
2021/11/27 01:08:25;;;;;;;;;5.00;5.00;;;;;5.87;68.61;98147.22;5098390;27;45542;-61
2021/11/27 01:10:57;;;;;;;;;9.50;6.00;;;;;5.86;68.99;98142.97;5080060;27;45225;-62
2021/11/27 01:13:23;;;;;;;;;8.25;6.00;;;;;5.87;68.83;98143.78;5098544;27;45366;-61
2021/11/27 01:15:48;;;;;;;;;7.25;4.00;;;;;5.87;68.88;98139.38;5080159;27;45426;-61
2021/11/27 01:18:14;;;;;;;;;7.00;4.50;;;;;5.88;68.97;98135.81;5098059;27;46499;-61
2021/11/27 01:20:42;;;;;;;;;9.25;6.25;;;;;5.88;69.04;98132.38;5098410;27;45359;-61
2021/11/27 01:23:08;;;;;;;;;7.00;4.25;;;;;5.90;68.85;98127.81;5080098;27;45336;-61
2021/11/27 01:25:33;;;;;;;;;4.75;2.00;;;;;5.90;68.76;98117.38;5079915;27;45440;-61
2021/11/27 01:27:59;;;;;;;;;3.50;3.50;;;;;5.90;68.78;98117.38;5097561;27;55193;-61
2021/11/27 01:30:24;;;;;;;;;4.00;4.00;;;;;5.89;68.68;98105.34;5097950;27;45189;-61
2021/11/27 01:32:49;;;;;;;;;4.75;3.25;;;;;5.90;68.49;98115.59;5098075;27;45297;-61
2021/11/27 01:35:15;;;;;;;;;2.50;2.50;;;;;5.88;68.28;98107.13;5098021;27;45220;-60
2021/11/27 01:37:40;;;;;;;;;4.25;4.00;;;;;5.87;68.13;98117.72;5097437;27;46365;-61
2021/11/27 01:40:08;;;;;;;;;3.50;3.00;;;;;5.87;67.99;98117.72;5097554;27;45368;-61
2021/11/27 01:42:34;;;;;;;;;6.75;3.25;;;;;5.85;68.01;98115.28;5098219;27;45301;-61
2021/11/27 01:44:59;;;;;;;;;2.25;2.25;;;;;5.84;68.03;98115.44;5097762;27;45500;-61
2021/11/27 01:47:25;;;;;;;;;4.25;2.50;;;;;5.83;68.15;98119.84;5097192;27;53240;-61
2021/11/27 01:49:51;;;;;;;;;3.50;2.00;;;;;5.81;67.96;98124.41;5079500;27;45814;-61
2021/11/27 01:52:16;;;;;;;;;3.00;2.00;;;;;5.79;67.72;98119.38;5097741;27;45383;-61
2021/11/27 01:54:42;;;;;;;;;3.75;2.75;;;;;5.78;67.60;98119.53;5097635;27;45504;-61
2021/11/27 01:57:07;;;;;;;;;2.50;2.00;;;;;5.76;67.26;98122.31;5096354;27;72275;-61
2021/11/27 01:59:34;;;;;;;;;6.50;2.00;;;;;5.74;66.79;98119.06;5078623;27;45333;-60
2021/11/27 02:01:59;;;;;;;;;3.00;2.00;;;;;5.73;66.61;98127.84;5097441;27;45213;-61
2021/11/27 02:04:25;;;;;;;;;2.00;1.00;;;;;5.71;66.45;98118.56;5097728;27;45499;-62
2021/11/27 02:06:50;;;;;;;;;1.25;1.25;;;;;5.68;66.59;98124.09;5096186;27;45323;-61
2021/11/27 02:09:20;;;;;;;;;2.50;2.00;;;;;5.64;66.80;98121.81;5096879;27;60277;-61
2021/11/27 02:11:46;;;;;;;;;2.25;1.75;;;;;5.62;66.63;98117.75;5079916;27;45323;-61
2021/11/27 02:14:11;;;;;;;;;1.50;1.50;;;;;5.57;66.64;98126.03;5097269;27;45254;-61
2021/11/27 02:16:37;;;;;;;;;1.25;1.25;;;;;5.56;66.36;98131.44;5062146;27;45639;-61
2021/11/27 02:19:03;;;;;;;;;2.75;1.00;;;;;5.52;66.49;98127.53;5079138;27;45295;-61
2021/11/27 02:21:28;;;;;;;;;1.00;1.00;;;;;5.46;66.10;98119.38;5097580;27;45314;-61
2021/11/27 02:23:54;;;;;;;;;2.00;1.00;;;;;5.45;66.11;98122.16;5096697;27;59726;-61
2021/11/27 02:26:22;;;;;;;;;2.00;1.00;;;;;5.41;66.02;98113.84;5078710;27;47076;-61
2021/11/27 02:28:50;;;;;;;;;0.75;0.75;;;;;5.40;65.97;98117.41;5096969;27;49646;-62
2021/11/27 02:31:16;;;;;;;;;1.00;1.00;;;;;5.38;65.70;98114.16;5097342;27;45296;-61
2021/11/27 02:33:42;;;;;;;;;1.25;0.75;;;;;5.34;65.77;98103.28;5061999;27;45486;-61
2021/11/27 02:36:07;;;;;;;;;2.25;1.00;;;;;5.34;65.50;98102.44;5096539;27;58152;-61
2021/11/27 02:38:33;;;;;;;;;1.75;0.00;;;;;5.32;65.64;98092.22;5078595;27;45384;-61
2021/11/27 02:40:58;;;;;;;;;0.00;0.00;;;;;5.30;65.71;98088.16;5060726;27;59263;-61
2021/11/27 02:43:23;;;;;;;;;1.25;0.00;;;;;5.30;65.81;98088.16;5096342;27;58959;-61
2021/11/27 02:45:49;;;;;;;;;1.00;1.00;;;;;5.28;65.82;98095.31;5095941;27;67601;-61
2021/11/27 02:48:14;;;;;;;;;2.00;0.00;;;;;5.28;66.12;98098.72;5078319;27;49212;-61
2021/11/27 02:50:39;;;;;;;;;3.00;0.00;;;;;5.26;66.08;98097.25;5096290;27;53827;-61
2021/11/27 02:53:05;;;;;;;;;1.25;1.00;;;;;5.25;65.99;98093.03;5078675;27;45617;-61
2021/11/27 02:55:30;;;;;;;;;1.50;1.00;;;;;5.24;66.19;98092.19;5096851;27;45353;-61
2021/11/27 02:57:56;;;;;;;;;0.00;0.00;;;;;5.23;66.08;98087.97;5095848;27;67233;-61
2021/11/27 03:00:22;;;;;;;;;1.00;1.00;;;;;5.23;66.22;98087.16;5096279;27;57814;-61
2021/11/27 03:02:48;;;;;;;;;0.25;0.25;;;;;5.23;66.51;98087.16;5096889;27;45365;-61
2021/11/27 03:05:13;;;;;;;;;1.25;1.25;;;;;5.22;66.58;98078.53;5078529;27;46317;-61
2021/11/27 03:07:38;;;;;;;;;1.00;0.00;;;;;5.23;66.21;98074.16;5096730;27;45371;-61
2021/11/27 03:10:06;;;;;;;;;1.00;1.00;;;;;5.22;66.37;98073.31;5077897;27;58398;-61
2021/11/27 03:12:31;;;;;;;;;2.75;1.00;;;;;5.20;66.48;98076.09;5096812;27;45174;-61
2021/11/27 03:14:58;;;;;;;;;1.00;1.00;;;;;5.19;66.51;98071.03;5077656;27;66382;-61
2021/11/27 03:17:23;;;;;;;;;1.00;1.00;;;;;5.16;66.33;98067.00;5079299;27;45849;-61
2021/11/27 03:19:48;;;;;;;;;1.00;1.00;;;;;5.16;66.56;98063.56;5081192;27;62884;-61
2021/11/27 03:22:14;;;;;;;;;2.00;1.00;;;;;5.15;66.21;98056.72;5099504;27;62715;-61
2021/11/27 03:24:40;;;;;;;;;0.25;0.00;;;;;5.12;66.30;98054.44;5100035;27;45218;-61
2021/11/27 03:27:05;;;;;;;;;1.00;1.00;;;;;5.08;66.37;98051.38;5100214;27;45197;-61
2021/11/27 03:29:31;;;;;;;;;3.00;1.00;;;;;5.03;66.18;98051.03;5081753;27;45375;-61
2021/11/27 03:32:03;;;;;;;;;1.50;1.00;;;;;5.01;66.25;98050.38;5100074;27;45291;-61
2021/11/27 03:34:29;;;;;;;;;1.00;0.75;;;;;4.96;66.04;98050.03;5099989;27;46782;-61
2021/11/27 03:36:54;;;;;;;;;3.00;1.00;;;;;4.92;66.31;98044.38;5099730;27;51759;-61
2021/11/27 03:39:20;;;;;;;;;4.00;1.00;;;;;4.90;66.30;98054.13;5099067;27;61959;-61
2021/11/27 03:41:45;;;;;;;;;2.00;0.00;;;;;4.89;66.30;98052.50;5099016;27;59522;-61
2021/11/27 03:44:10;;;;;;;;;0.00;0.00;;;;;4.89;66.18;98055.91;5098895;27;66619;-61
2021/11/27 03:46:36;;;;;;;;;2.25;1.00;;;;;4.84;66.15;98045.16;5098743;27;67554;-61
2021/11/27 03:49:01;;;;;;;;;1.00;1.00;;;;;4.82;66.38;98038.50;5099000;27;62668;-60
2021/11/27 03:51:26;;;;;;;;;11.00;3.00;;;;;4.79;66.27;98037.00;5099603;27;45315;-61
2021/11/27 03:53:52;;;;;;;;;2.75;2.50;;;;;4.75;66.16;98030.53;5099300;27;45470;-61
2021/11/27 03:56:19;;;;;;;;;4.25;4.25;;;;;4.73;66.29;98033.28;5099431;27;45338;-61
2021/11/27 03:58:45;;;;;;;;;3.00;1.50;;;;;4.73;66.12;98032.47;5099359;27;45360;-61
2021/11/27 04:01:11;;;;;;;;;4.25;2.00;;;;;4.72;66.54;98025.66;5098684;27;61332;-61
2021/11/27 04:03:38;;;;;;;;;3.25;1.00;;;;;4.71;66.01;98024.03;5081111;27;45283;-61
2021/11/27 04:06:03;;;;;;;;;3.50;1.00;;;;;4.70;66.23;98012.78;5081039;27;45736;-61
2021/11/27 04:08:29;;;;;;;;;1.75;1.00;;;;;4.70;66.01;98012.00;5099386;27;45283;-61
2021/11/27 04:10:54;;;;;;;;;1.00;0.75;;;;;4.69;66.12;98018.16;5098704;27;62652;-61
2021/11/27 04:13:20;;;;;;;;;0.25;0.00;;;;;4.67;66.17;98022.72;5099088;27;46302;-61
2021/11/27 04:15:45;;;;;;;;;2.25;0.00;;;;;4.66;66.28;98023.69;5099144;27;45387;-61
2021/11/27 04:18:11;;;;;;;;;1.75;0.50;;;;;4.64;66.27;98017.81;5079898;27;65100;-60
2021/11/27 04:20:36;;;;;;;;;1.00;1.00;;;;;4.62;66.09;98014.56;5079886;27;45465;-61
2021/11/27 04:23:02;;;;;;;;;1.00;1.00;;;;;4.58;66.37;98008.84;5098091;27;67882;-61
2021/11/27 04:25:28;;;;;;;;;0.00;0.00;;;;;4.56;66.30;98009.03;5080834;27;45367;-61
2021/11/27 04:27:54;;;;;;;;;1.00;1.00;;;;;4.54;66.53;98008.38;5099094;27;45327;-61
2021/11/27 04:30:21;;;;;;;;;2.00;0.00;;;;;4.52;66.32;98005.13;5097250;27;62324;-61
2021/11/27 04:32:46;;;;;;;;;6.00;0.25;;;;;4.50;66.51;98001.06;5098702;27;48753;-61
2021/11/27 04:35:12;;;;;;;;;2.00;1.00;;;;;4.48;66.56;98001.22;5098820;27;45312;-61
2021/11/27 04:37:37;;;;;;;;;1.00;1.00;;;;;4.46;66.49;98003.16;5080417;27;45324;-61
2021/11/27 04:40:04;;;;;;;;;0.50;0.00;;;;;4.43;66.73;98004.31;5097792;27;67522;-61
2021/11/27 04:42:29;;;;;;;;;1.50;0.00;;;;;4.44;66.47;97994.69;5079909;27;46828;-61
2021/11/27 04:44:56;;;;;;;;;1.00;0.00;;;;;4.42;66.75;98000.06;5098535;27;45818;-61
2021/11/27 04:47:21;;;;;;;;;0.75;0.75;;;;;4.40;66.81;98003.78;5098081;27;60934;-61
2021/11/27 04:49:47;;;;;;;;;0.50;0.50;;;;;4.38;66.81;97997.94;5097784;27;66204;-61
2021/11/27 04:52:12;;;;;;;;;1.00;1.00;;;;;4.37;66.51;97996.31;5097860;27;66357;-61
2021/11/27 04:54:38;;;;;;;;;0.50;0.00;;;;;4.36;66.52;98000.72;5080341;27;45344;-61
2021/11/27 04:57:03;;;;;;;;;0.00;0.00;;;;;4.32;66.77;98002.00;5080229;27;45340;-61
2021/11/27 04:59:29;;;;;;;;;2.00;0.75;;;;;4.32;66.39;97999.41;5080200;27;45292;-61
2021/11/27 05:01:54;;;;;;;;;0.75;0.00;;;;;4.29;66.73;97995.31;5098244;27;45810;-61
2021/11/27 05:04:19;;;;;;;;;1.00;1.00;;;;;4.28;66.78;97988.47;5097324;27;45534;-63
2021/11/27 05:06:45;;;;;;;;;0.50;0.50;;;;;4.26;66.79;97994.81;5097666;27;63393;-61
2021/11/27 05:09:11;;;;;;;;;1.50;0.00;;;;;4.24;66.86;97997.56;5097662;27;63470;-61
2021/11/27 05:11:36;;;;;;;;;2.00;1.00;;;;;4.23;67.02;97997.75;5098058;27;45390;-61
2021/11/27 05:14:02;;;;;;;;;2.00;0.00;;;;;4.23;67.04;98001.16;5079948;27;45517;-61
2021/11/27 05:16:28;;;;;;;;;0.50;0.50;;;;;4.25;66.64;98007.00;5097943;27;45328;-61
2021/11/27 05:18:53;;;;;;;;;0.50;0.50;;;;;4.25;66.98;98001.78;5098206;27;45539;-61
2021/11/27 05:21:19;;;;;;;;;0.50;0.25;;;;;4.24;66.57;98004.56;5097274;27;68211;-61
2021/11/27 05:23:44;;;;;;;;;0.00;0.00;;;;;4.22;66.83;97996.94;5098019;27;45367;-61
2021/11/27 05:26:09;;;;;;;;;0.00;0.00;;;;;4.20;66.65;98001.47;5097651;27;53436;-61
2021/11/27 05:28:35;;;;;;;;;1.75;1.00;;;;;4.21;66.83;98010.91;5097717;27;50965;-61
2021/11/27 05:31:00;;;;;;;;;0.50;0.50;;;;;4.20;66.79;97990.25;5098057;27;45430;-61
2021/11/27 05:36:10;;;;;;;;;1.75;1.00;;;;;4.19;66.84;97973.88;5098071;27;45247;-61
2021/11/27 05:38:35;;;;;;;;;2.25;1.00;;;;;4.17;66.85;97965.41;5097830;27;45462;-61
2021/11/27 05:41:01;;;;;;;;;2.25;0.50;;;;;4.17;66.97;97962.81;5078686;27;54377;-61
2021/11/27 05:43:26;;;;;;;;;1.00;0.00;;;;;4.15;66.70;97952.56;5097455;27;50334;-61
2021/11/27 05:45:51;;;;;;;;;0.50;0.50;;;;;4.16;67.01;97956.78;5097458;27;49438;-61
2021/11/27 05:48:17;;;;;;;;;0.00;0.00;;;;;4.15;66.88;97949.16;5097508;27;50305;-61
2021/11/27 05:50:42;;;;;;;;;1.00;1.00;;;;;4.16;67.20;97943.00;5096737;27;71332;-61
2021/11/27 05:53:08;;;;;;;;;0.50;0.50;;;;;4.15;66.83;97947.34;5096992;27;62447;-61
2021/11/27 05:55:34;;;;;;;;;1.00;0.00;;;;;4.16;67.12;97938.59;5079505;27;45671;-61
2021/11/27 05:57:59;;;;;;;;;2.50;2.50;;;;;4.15;67.06;97949.16;5097533;27;45374;-61
2021/11/27 06:00:24;;;;;;;;;3.00;1.00;;;;;4.15;67.28;97949.16;5096161;27;71547;-61
2021/11/27 06:02:50;;;;;;;;;2.00;2.00;;;;;4.16;67.04;97950.78;5096517;27;61083;-60
2021/11/27 06:05:15;;;;;;;;;1.25;1.00;;;;;4.16;67.02;97953.38;5096584;27;61395;-60
2021/11/27 06:07:41;;;;;;;;;1.00;1.00;;;;;4.17;66.96;97957.63;5097117;27;45543;-60
2021/11/27 06:10:06;;;;;;;;;1.25;0.25;;;;;4.18;67.09;97948.00;5078404;27;56367;-61
2021/11/27 06:12:32;;;;;;;;;2.00;1.00;;;;;4.19;67.37;97955.66;5078706;27;45359;-60
2021/11/27 06:14:57;;;;;;;;;1.25;1.00;;;;;4.20;67.05;97962.50;5078141;27;61211;-60
2021/11/27 06:17:23;;;;;;;;;2.00;1.00;;;;;4.21;67.32;97964.13;5097076;27;45320;-61
2021/11/27 06:19:48;;;;;;;;;0.25;0.25;;;;;4.24;67.08;97955.19;5096380;27;67183;-60
2021/11/27 06:22:13;;;;;;;;;1.00;0.00;;;;;4.26;67.08;97953.22;5061053;27;64488;-60
2021/11/27 06:24:39;;;;;;;;;2.00;0.00;;;;;4.28;67.06;97964.28;5096274;27;65677;-60
2021/11/27 06:27:04;;;;;;;;;5.50;0.75;;;;;4.30;67.24;97957.94;5097068;27;45350;-60
2021/11/27 06:29:30;;;;;;;;;2.25;0.75;;;;;4.33;67.20;97956.00;5096859;27;45976;-60
2021/11/27 06:31:55;;;;;;;;;3.00;1.00;;;;;4.34;66.84;97952.44;5096911;27;45208;-61
2021/11/27 06:34:20;;;;;;;;;1.00;1.00;;;;;4.35;66.89;97948.84;5096546;27;47997;-61
2021/11/27 06:36:46;;;;;;;;;1.00;1.00;;;;;4.37;66.83;97939.09;5096032;27;57237;-60
2021/11/27 06:39:11;;;;;;;;;1.00;1.00;;;;;4.39;66.80;97942.38;5095768;27;46318;-61
2021/11/27 06:41:37;;;;;;;;;2.00;0.75;;;;;4.39;66.70;97951.00;5096703;27;45310;-61
2021/11/27 06:44:02;;;;;;;;;0.25;0.25;;;;;4.39;66.62;97942.38;5096064;27;60945;-61
2021/11/27 06:46:27;;;;;;;;;1.00;1.00;;;;;4.40;66.76;97938.78;5095822;27;45509;-61
2021/11/27 06:48:53;;;;;;;;;1.50;1.00;;;;;4.39;66.57;97940.59;5095664;27;72208;-61
2021/11/27 06:51:18;;;;;;;;;1.75;1.00;;;;;4.40;66.52;97931.00;5095909;27;65916;-60
2021/11/27 06:53:44;;;;;;;;;0.00;0.00;;;;;4.41;66.66;97940.41;5095585;27;62241;-61
2021/11/27 06:56:09;;;;;;;;;3.75;1.25;;;;;4.41;66.93;97940.41;5096870;27;45252;-61
2021/11/27 06:58:34;;;;;;;;;4.00;1.00;;;;;4.44;66.76;97945.28;5095570;27;70956;-61
2021/11/27 07:01:00;;;;;;;;;1.00;1.00;;;;;4.44;66.45;97951.31;5096490;27;45445;-61
2021/11/27 07:03:25;;;;;;;;;2.00;0.00;;;;;4.45;66.50;97947.75;5096765;27;45337;-61
2021/11/27 07:05:51;;;;;;;;;3.75;1.00;;;;;4.47;66.50;97957.19;5096608;27;45154;-60
2021/11/27 07:08:16;;;;;;;;;2.50;0.75;;;;;4.45;66.56;97952.13;5095484;27;66984;-60
2021/11/27 07:10:43;;;;;;;;;2.50;1.00;;;;;4.44;66.67;97945.28;5095579;27;68648;-61
2021/11/27 07:13:08;;;;;;;;;0.50;0.50;;;;;4.45;66.90;97942.56;5096547;27;45488;-60
2021/11/27 07:15:34;;;;;;;;;3.00;1.00;;;;;4.45;66.99;97946.94;5078074;27;45567;-61
2021/11/27 07:17:59;;;;;;;;;3.00;1.00;;;;;4.45;66.99;97945.16;5095099;27;73577;-60
2021/11/27 07:20:25;;;;;;;;;2.00;0.75;;;;;4.45;67.43;97952.13;5096215;27;45374;-60
2021/11/27 07:22:50;;;;;;;;;2.75;1.00;;;;;4.44;67.52;97947.91;5095367;27;45921;-60
2021/11/27 07:25:15;;;;;;;;;1.00;1.00;;;;;4.45;67.56;97936.53;5096117;27;45570;-60
2021/11/27 07:27:41;;;;;;;;;2.75;1.00;;;;;4.44;67.55;97935.72;5095152;27;68531;-60
2021/11/27 07:30:06;;;;;;;;;2.75;1.25;;;;;4.43;67.42;97935.88;5095938;27;45368;-61
2021/11/27 07:32:32;;;;;;;;;1.25;1.25;;;;;4.38;67.37;97941.56;5095743;27;45466;-60
2021/11/27 07:34:57;;;;;;;;;1.00;1.00;;;;;4.35;67.67;97952.28;5096000;27;45395;-60
2021/11/27 07:37:23;;;;;;;;;7.00;2.00;;;;;4.31;67.69;97943.97;5094664;27;75161;-60
2021/11/27 07:39:48;;;;;;;;;2.00;2.00;;;;;4.29;67.85;97952.91;5095768;27;45283;-60
2021/11/27 07:42:14;;;;;;;;;1.25;1.00;;;;;4.28;67.82;97959.09;5096108;27;45307;-60
2021/11/27 07:44:40;;;;;;;;;1.25;1.25;;;;;4.25;68.21;97962.00;5095997;27;45298;-60
2021/11/27 07:47:05;;;;;;;;;1.00;1.00;;;;;4.22;68.36;97963.16;5094769;27;71089;-61
2021/11/27 07:49:30;;;;;;;;;2.00;2.00;;;;;4.22;68.25;97957.94;5076695;27;64762;-61
2021/11/27 07:51:56;;;;;;;;;6.75;3.00;;;;;4.20;68.38;97959.06;5094922;27;64896;-61
2021/11/27 07:54:21;;;;;;;;;2.50;2.00;;;;;4.19;68.31;97960.88;5095782;27;45157;-60
2021/11/27 07:56:47;;;;;;;;;1.00;1.00;;;;;4.16;68.56;97956.78;5094867;27;62003;-61
2021/11/27 07:59:12;;;;;;;;;3.50;1.00;;;;;4.13;68.48;97957.09;5095495;27;45212;-60
2021/11/27 08:01:37;;;;;;;;;1.00;1.00;;;;;4.10;68.55;97959.22;5077294;27;45231;-60
2021/11/27 08:04:03;;;;;;;;;1.00;1.00;;;;;4.09;68.73;97965.38;5095223;27;64610;-60
2021/11/27 08:06:28;;;;;;;;;4.75;2.75;;;;;4.09;68.73;97957.59;5098711;27;46002;-60
2021/11/27 08:08:54;;;;;;;;;1.50;1.50;;;;;4.04;68.87;97955.44;5098491;27;54231;-61
2021/11/27 08:11:20;;;;;;;;;1.00;1.00;;;;;4.04;68.53;97965.03;5098238;27;60459;-61
2021/11/27 08:13:47;;;;;;;;;1.50;1.00;;;;;3.97;68.31;97952.69;5099031;27;45652;-60
2021/11/27 08:16:13;;;;;;;;;2.25;1.25;;;;;3.96;68.46;97978.81;5080561;27;45474;-60
2021/11/27 08:18:39;;;;;;;;;4.25;1.00;;;;;3.88;68.83;97964.00;5098508;27;45429;-61
2021/11/27 08:21:04;;;;;;;;;2.00;1.75;;;;;3.83;68.93;97959.28;5080459;27;45446;-61
2021/11/27 08:23:30;;;;;;;;;0.00;0.00;;;;;3.81;68.74;97966.41;5097889;27;67573;-61
2021/11/27 08:25:55;;;;;;;;;2.50;1.25;;;;;3.79;68.89;97970.13;5079951;27;45843;-60
2021/11/27 08:28:20;;;;;;;;;4.25;4.00;;;;;3.78;69.31;97971.09;5097882;27;67253;-60
2021/11/27 08:30:46;;;;;;;;;4.00;1.00;;;;;3.78;68.94;97958.94;5097878;27;64149;-61
2021/11/27 08:33:11;;;;;;;;;3.75;2.00;;;;;3.77;69.33;97966.88;5079264;27;59327;-61
2021/11/27 08:35:37;;;;;;;;;2.25;2.00;;;;;3.75;69.56;97964.44;5097839;27;64640;-60
2021/11/27 08:38:02;;;;;;;;;2.00;1.00;;;;;3.74;69.82;97957.63;5094615;27;46004;-60
2021/11/27 08:40:27;;;;;;;;;3.00;3.00;;;;;3.76;69.95;97967.84;5069668;27;45441;-60
2021/11/27 08:42:53;;;;;;;;;2.00;2.00;;;;;3.77;69.79;97972.06;5057995;28;64415;-60
2021/11/27 08:45:18;;;;;;;;;1.00;1.00;;;;;3.80;69.98;97961.38;5055596;28;46370;-61
2021/11/27 08:47:44;;;;;;;;;3.25;2.00;;;;;3.80;69.85;97963.97;5054560;28;62897;-60
2021/11/27 08:50:09;;;;;;;;;1.25;1.25;;;;;3.80;70.25;97972.59;5058426;28;45501;-61
2021/11/27 08:52:35;;;;;;;;;2.00;2.00;;;;;3.81;70.19;97971.63;5063058;28;45483;-61
2021/11/27 08:55:00;;;;;;;;;2.75;2.75;;;;;3.85;70.60;97972.09;5047487;28;45411;-60
2021/11/27 08:57:26;;;;;;;;;4.25;4.25;;;;;3.88;70.54;97966.59;5053769;28;45466;-61
2021/11/27 08:59:51;;;;;;;;;2.00;2.00;;;;;3.92;70.31;97973.13;5039599;28;45513;-61
2021/11/27 09:02:17;;;;;;;;;2.25;2.00;;;;;3.95;70.68;97975.41;5058009;28;45445;-61
2021/11/27 09:04:42;;;;;;;;;2.00;2.00;;;;;3.98;70.60;97977.69;5055864;28;46485;-60
2021/11/27 09:07:07;;;;;;;;;2.00;2.00;;;;;4.01;70.49;97982.56;5054970;28;68237;-61
2021/11/27 09:09:33;;;;;;;;;6.00;2.50;;;;;4.03;70.38;97972.00;5056599;28;45746;-61
2021/11/27 09:11:59;;;;;;;;;2.00;2.00;;;;;4.06;70.49;97981.28;5055387;28;55724;-61
2021/11/27 09:14:25;;;;;;;;;1.50;1.50;;;;;4.08;70.59;97987.94;5056699;28;45556;-60
2021/11/27 09:16:51;;;;;;;;;2.25;2.25;;;;;4.11;70.55;97979.03;5056096;28;45514;-61
2021/11/27 09:19:16;;;;;;;;;2.50;2.00;;;;;4.14;70.67;97989.91;5057125;28;45441;-60
2021/11/27 09:21:42;;;;;;;;;3.25;2.00;;;;;4.18;70.74;97981.81;5041569;28;45191;-60
2021/11/27 09:24:07;;;;;;;;;2.00;2.00;;;;;4.22;70.70;97996.13;5055750;28;51678;-60
2021/11/27 09:26:34;;;;;;;;;2.00;2.00;;;;;4.25;70.59;97995.78;5060329;28;45418;-60
2021/11/27 09:29:00;;;;;;;;;2.75;2.75;;;;;4.28;70.56;97996.28;5029611;28;45405;-61
2021/11/27 09:31:25;;;;;;;;;3.50;2.00;;;;;4.33;70.74;97989.78;5055116;28;48975;-61
2021/11/27 09:33:50;;;;;;;;;1.00;1.00;;;;;4.38;70.31;97990.13;5054005;28;64977;-61
2021/11/27 09:36:18;;;;;;;;;3.75;2.00;;;;;4.41;70.73;97997.63;5054038;28;71956;-60
2021/11/27 09:38:43;;;;;;;;;3.00;2.00;;;;;4.45;70.49;97994.56;5056960;28;45466;-61
2021/11/27 09:41:09;;;;;;;;;4.50;3.00;;;;;4.50;70.96;97998.47;5050966;28;45547;-60
2021/11/27 09:43:35;;;;;;;;;2.00;2.00;;;;;4.56;70.77;98011.63;5054947;28;46343;-60
2021/11/27 09:46:00;;;;;;;;;2.00;2.00;;;;;4.62;70.45;98004.16;5058671;28;46238;-60
2021/11/27 09:48:26;;;;;;;;;1.50;1.50;;;;;4.66;70.31;98013.28;5068894;28;60531;-61
2021/11/27 09:50:52;;;;;;;;;2.00;2.00;;;;;4.67;70.37;98018.31;5040437;28;64657;-61
2021/11/27 09:53:21;;;;;;;;;3.75;3.75;;;;;4.69;70.54;98015.56;5062200;28;46087;-60
2021/11/27 09:55:47;;;;;;;;;2.50;2.50;;;;;4.72;70.02;98015.25;5055990;28;45502;-60
2021/11/27 09:58:13;;;;;;;;;2.00;2.00;;;;;4.73;69.99;98014.28;5064122;28;45472;-61
2021/11/27 10:00:38;;;;;;;;;2.75;1.50;;;;;4.74;70.12;98024.50;5051560;28;45513;-61
2021/11/27 10:03:03;;;;;;;;;2.75;2.75;;;;;4.77;69.99;98018.16;5047115;28;70654;-61
2021/11/27 10:05:29;;;;;;;;;3.75;3.00;;;;;4.78;69.55;98017.16;5052829;28;66619;-60
2021/11/27 10:07:54;;;;;;;;;31.25;27.25;;;;;4.79;69.65;98031.81;5056478;28;54628;-61
2021/11/27 10:10:19;;;;;;;;;1.00;1.00;;;;;4.77;69.69;98028.56;5051821;28;68431;-61
2021/11/27 10:12:45;;;;;;;;;3.50;2.50;;;;;4.78;69.87;98032.78;5055712;28;69462;-60
2021/11/27 10:15:11;;;;;;;;;4.00;3.00;;;;;4.79;69.97;98026.59;5072675;28;45490;-61
2021/11/27 10:17:36;;;;;;;;;2.00;2.00;;;;;4.81;70.04;98031.66;5053799;28;45501;-60
2021/11/27 10:20:04;;;;;;;;;2.00;2.00;;;;;4.81;70.32;98029.84;5056881;27;46159;-61
2021/11/27 10:22:50;;;;;;;;;1.25;1.25;;;;;4.83;69.81;98022.72;5053974;28;45942;-60
2021/11/27 10:25:21;;;;;;;;;1.00;1.00;;;;;4.87;70.08;98034.44;5055293;28;45863;-61
2021/11/27 10:27:47;;;;;;;;;3.50;3.00;;;;;4.91;70.06;98024.53;5055411;28;45479;-60
2021/11/27 10:30:12;;;;;;;;;2.00;2.00;;;;;4.96;70.12;98022.25;5058668;28;62872;-61
2021/11/27 10:32:39;;;;;;;;;2.00;2.00;;;;;5.00;70.20;98033.97;5057385;28;71493;-61
2021/11/27 10:35:07;;;;;;;;;4.50;2.00;;;;;5.03;69.98;98027.59;5056054;28;45907;-61
2021/11/27 10:37:44;;;;;;;;;2.50;2.25;;;;;5.06;69.90;98032.50;5054529;28;45477;-60
2021/11/27 10:40:21;;;;;;;;;3.00;2.25;;;;;5.10;70.02;98030.38;5059158;27;45347;-61
2021/11/27 10:42:53;;;;;;;;;4.00;3.00;;;;;5.12;70.03;98031.84;5077514;27;46943;-61
2021/11/27 10:45:26;;;;;;;;;6.75;2.50;;;;;5.15;70.04;98034.13;5074376;27;45501;-61
2021/11/27 10:47:53;;;;;;;;;3.25;2.00;;;;;5.17;70.02;98031.34;5056054;27;45455;-61
2021/11/27 10:50:22;;;;;;;;;3.75;3.00;;;;;5.23;70.04;98032.50;5071949;27;45595;-60
2021/11/27 10:52:49;;;;;;;;;3.75;3.75;;;;;5.26;69.81;98043.38;5075543;27;46583;-60
2021/11/27 10:55:19;;;;;;;;;4.00;4.00;;;;;5.30;69.78;98042.09;5066437;27;45365;-60
2021/11/27 10:57:44;;;;;;;;;4.00;4.00;;;;;5.33;70.10;98038.31;5073983;27;45461;-60
2021/11/27 11:00:39;;;;;;;;;2.00;2.00;;;;;5.36;69.87;98040.59;5074559;27;45433;-60
2021/11/27 11:03:06;;;;;;;;;4.25;3.00;;;;;5.41;69.87;98042.72;5064202;27;48050;-61
2021/11/27 11:05:34;;;;;;;;;3.50;3.00;;;;;5.43;69.97;98043.38;5074422;27;45259;-61
2021/11/27 11:08:00;;;;;;;;;9.75;9.00;;;;;5.46;69.59;98046.47;5063940;27;45390;-60
2021/11/27 11:10:31;;;;;;;;;3.00;3.00;;;;;5.49;69.72;98043.53;5073606;27;45514;-61
2021/11/27 11:13:01;;;;;;;;;7.00;5.50;;;;;5.53;69.90;98043.19;5049306;27;45414;-61
2021/11/27 11:15:33;;;;;;;;;3.75;2.50;;;;;5.58;69.69;98051.34;5073754;27;45489;-61
2021/11/27 11:18:05;;;;;;;;;5.00;4.00;;;;;5.61;69.95;98056.22;5073818;27;45447;-61
2021/11/27 11:20:30;;;;;;;;;3.75;2.00;;;;;5.63;69.90;98051.66;5074474;27;45613;-61
2021/11/27 11:23:05;;;;;;;;;3.00;3.00;;;;;5.69;69.91;98061.41;5072478;27;65767;-61
2021/11/27 11:25:52;;;;;;;;;10.50;8.50;;;;;5.72;69.65;98053.28;5072973;27;46159;-61
2021/11/27 11:28:17;;;;;;;;;4.50;4.25;;;;;5.75;69.69;98060.75;5047883;27;45458;-61
2021/11/27 11:30:44;;;;;;;;;3.00;3.00;;;;;5.79;69.39;98061.22;5076091;27;68516;-61
2021/11/27 11:33:10;;;;;;;;;3.25;3.25;;;;;5.81;69.33;98068.88;5065915;27;45450;-61
2021/11/27 11:35:36;;;;;;;;;5.25;3.50;;;;;5.82;69.06;98067.91;5076345;27;45275;-61
2021/11/27 11:38:05;;;;;;;;;2.25;2.25;;;;;5.85;69.00;98060.56;5073608;27;45485;-61